createdAt,value
2017-03-10T00:00:06.740Z,0
2017-03-10T00:01:07.499Z,0
2017-03-10T00:02:08.145Z,0
2017-03-10T00:03:08.823Z,0
2017-03-10T00:04:09.478Z,0
2017-03-10T00:05:10.195Z,0
2017-03-10T00:06:10.858Z,0
2017-03-10T00:07:11.526Z,0
2017-03-10T00:08:12.177Z,0
2017-03-10T00:09:12.843Z,0
2017-03-10T00:10:13.493Z,0
2017-03-10T00:11:14.163Z,0
2017-03-10T00:12:14.834Z,0
2017-03-10T00:13:15.513Z,0
2017-03-10T00:14:16.178Z,0
2017-03-10T00:15:16.837Z,0
2017-03-10T00:16:17.482Z,0
2017-03-10T00:17:18.146Z,0
2017-03-10T00:18:18.816Z,0
2017-03-10T00:19:19.508Z,0
2017-03-10T00:20:20.163Z,0
2017-03-10T00:21:20.945Z,0
2017-03-10T00:22:21.594Z,0
2017-03-10T00:23:22.260Z,0
2017-03-10T00:24:22.925Z,0
2017-03-10T00:25:23.570Z,0
2017-03-10T00:26:24.252Z,0
2017-03-10T00:27:24.900Z,0
2017-03-10T00:28:25.550Z,0
2017-03-10T00:29:26.219Z,0
2017-03-10T00:30:26.871Z,0
2017-03-10T00:31:27.523Z,0
2017-03-10T00:32:28.183Z,0
2017-03-10T00:33:28.840Z,0
2017-03-10T00:34:29.552Z,0
2017-03-10T00:35:30.177Z,0
2017-03-10T00:36:30.837Z,0
2017-03-10T00:37:31.497Z,0
2017-03-10T00:38:32.159Z,0
2017-03-10T00:39:32.841Z,0
2017-03-10T00:40:33.509Z,0
2017-03-10T00:41:34.174Z,0
2017-03-10T00:42:34.846Z,0
2017-03-10T00:43:35.506Z,0
2017-03-10T00:44:36.212Z,0
2017-03-10T00:45:36.888Z,0
2017-03-10T00:46:37.544Z,0
2017-03-10T00:47:38.203Z,0
2017-03-10T00:48:38.851Z,0
2017-03-10T00:49:39.512Z,0
2017-03-10T00:50:40.154Z,0
2017-03-10T00:51:40.818Z,0
2017-03-10T00:52:41.470Z,0
2017-03-10T00:53:42.152Z,0
2017-03-10T00:54:42.814Z,0
2017-03-10T00:55:43.479Z,0
2017-03-10T00:56:44.157Z,0
2017-03-10T00:57:44.816Z,0
2017-03-10T00:58:45.472Z,0
2017-03-10T00:59:46.130Z,0
2017-03-10T01:00:46.801Z,0
2017-03-10T01:01:47.474Z,0
2017-03-10T01:02:48.149Z,0
2017-03-10T01:03:48.818Z,0
2017-03-10T01:04:49.478Z,0
2017-03-10T01:05:50.152Z,0
2017-03-10T01:06:50.830Z,0
2017-03-10T01:07:51.513Z,0
2017-03-10T01:08:52.237Z,0
2017-03-10T01:09:52.866Z,0
2017-03-10T01:10:53.524Z,0
2017-03-10T01:11:54.193Z,0
2017-03-10T01:12:54.863Z,0
2017-03-10T01:13:55.515Z,0
2017-03-10T01:14:56.177Z,0
2017-03-10T01:15:56.831Z,0
2017-03-10T01:16:57.479Z,0
2017-03-10T01:17:58.184Z,0
2017-03-10T01:18:58.859Z,0
2017-03-10T01:19:59.545Z,0
2017-03-10T01:21:00.194Z,0
2017-03-10T01:22:00.868Z,0
2017-03-10T01:23:01.556Z,0
2017-03-10T01:24:02.209Z,0
2017-03-10T01:25:02.879Z,0
2017-03-10T01:26:03.562Z,0
2017-03-10T01:27:04.227Z,0
2017-03-10T01:28:04.889Z,0
2017-03-10T01:29:05.567Z,0
2017-03-10T01:30:06.231Z,0
2017-03-10T01:31:06.883Z,0
2017-03-10T01:32:07.532Z,0
2017-03-10T01:33:08.198Z,0
2017-03-10T01:34:08.851Z,0
2017-03-10T01:35:09.507Z,0
2017-03-10T01:36:10.183Z,0
2017-03-10T01:37:10.844Z,0
2017-03-10T01:38:11.602Z,0
2017-03-10T01:39:12.266Z,0
2017-03-10T01:40:12.932Z,0
2017-03-10T01:41:13.583Z,0
2017-03-10T01:42:14.262Z,0
2017-03-10T01:43:14.935Z,0
2017-03-10T01:44:15.601Z,0
2017-03-10T01:45:16.272Z,0
2017-03-10T01:46:16.967Z,0
2017-03-10T01:47:17.610Z,0
2017-03-10T01:48:18.291Z,0
2017-03-10T01:49:18.968Z,0
2017-03-10T01:50:19.637Z,0
2017-03-10T01:51:20.303Z,0
2017-03-10T01:52:20.989Z,0
2017-03-10T01:53:21.625Z,0
2017-03-10T01:54:22.332Z,0
2017-03-10T01:55:22.973Z,0
2017-03-10T01:56:23.620Z,0
2017-03-10T01:57:24.305Z,0
2017-03-10T01:58:24.963Z,0
2017-03-10T01:59:25.614Z,0
2017-03-10T02:00:26.280Z,0
2017-03-10T02:01:27.046Z,0
2017-03-10T02:02:27.704Z,0
2017-03-10T02:03:28.379Z,0
2017-03-10T02:04:29.051Z,0
2017-03-10T02:05:29.812Z,0
2017-03-10T02:06:30.494Z,0
2017-03-10T02:07:31.172Z,0
2017-03-10T02:08:31.825Z,0
2017-03-10T02:09:32.500Z,0
2017-03-10T02:10:33.164Z,0
2017-03-10T02:11:33.827Z,0
2017-03-10T02:12:34.497Z,0
2017-03-10T02:13:35.162Z,0
2017-03-10T02:14:35.829Z,0
2017-03-10T02:15:36.469Z,0
2017-03-10T02:16:37.132Z,0
2017-03-10T02:17:37.788Z,0
2017-03-10T02:18:38.442Z,0
2017-03-10T02:19:39.097Z,0
2017-03-10T02:20:39.828Z,0
2017-03-10T02:21:40.499Z,0
2017-03-10T02:22:41.161Z,0
2017-03-10T02:23:41.822Z,0
2017-03-10T02:24:42.487Z,0
2017-03-10T02:25:43.164Z,0
2017-03-10T02:26:43.836Z,0
2017-03-10T02:27:44.520Z,0
2017-03-10T02:28:45.178Z,0
2017-03-10T02:29:45.862Z,0
2017-03-10T02:30:46.542Z,0
2017-03-10T02:31:47.199Z,0
2017-03-10T02:32:47.874Z,0
2017-03-10T02:33:48.541Z,0
2017-03-10T02:34:49.224Z,0
2017-03-10T02:35:49.908Z,0
2017-03-10T02:36:50.562Z,0
2017-03-10T02:37:51.231Z,0
2017-03-10T02:38:51.906Z,0
2017-03-10T02:39:52.570Z,0
2017-03-10T02:40:53.220Z,0
2017-03-10T02:41:53.883Z,0
2017-03-10T02:42:54.539Z,0
2017-03-10T02:43:55.202Z,0
2017-03-10T02:44:55.875Z,0
2017-03-10T02:45:56.543Z,0
2017-03-10T02:46:57.204Z,0
2017-03-10T02:47:57.861Z,0
2017-03-10T02:48:58.529Z,0
2017-03-10T02:49:59.205Z,0
2017-03-10T02:50:59.880Z,0
2017-03-10T02:52:00.557Z,0
2017-03-10T02:53:01.220Z,0
2017-03-10T02:54:01.855Z,0
2017-03-10T02:55:02.515Z,0
2017-03-10T02:56:03.164Z,0
2017-03-10T02:57:03.815Z,0
2017-03-10T02:58:04.468Z,0
2017-03-10T02:59:05.156Z,0
2017-03-10T03:00:05.807Z,0
2017-03-10T03:01:06.464Z,0
2017-03-10T03:02:07.132Z,0
2017-03-10T03:03:07.787Z,0
2017-03-10T03:04:08.469Z,0
2017-03-10T03:05:09.131Z,0
2017-03-10T03:06:09.794Z,0
2017-03-10T03:07:10.446Z,0
2017-03-10T03:08:11.109Z,0
2017-03-10T03:09:11.765Z,0
2017-03-10T03:10:12.405Z,0
2017-03-10T03:11:13.082Z,0
2017-03-10T03:12:13.747Z,0
2017-03-10T03:13:14.408Z,0
2017-03-10T03:14:15.059Z,0
2017-03-10T03:15:15.728Z,0
2017-03-10T03:16:16.388Z,0
2017-03-10T03:17:17.048Z,0
2017-03-10T03:18:17.720Z,0
2017-03-10T03:19:18.388Z,0
2017-03-10T03:20:19.043Z,0
2017-03-10T03:21:19.703Z,0
2017-03-10T03:22:20.353Z,0
2017-03-10T03:23:21.004Z,0
2017-03-10T03:24:21.654Z,0
2017-03-10T03:25:22.306Z,0
2017-03-10T03:26:22.953Z,0
2017-03-10T03:27:23.612Z,0
2017-03-10T03:28:24.274Z,0
2017-03-10T03:29:24.935Z,0
2017-03-10T03:30:25.679Z,0
2017-03-10T03:31:26.343Z,0
2017-03-10T03:32:26.991Z,0
2017-03-10T03:33:27.638Z,0
2017-03-10T03:34:28.307Z,0
2017-03-10T03:35:28.961Z,0
2017-03-10T03:36:29.620Z,0
2017-03-10T03:37:30.285Z,0
2017-03-10T03:38:30.966Z,0
2017-03-10T03:39:31.613Z,0
2017-03-10T03:40:32.268Z,0
2017-03-10T03:41:32.922Z,0
2017-03-10T03:42:33.579Z,0
2017-03-10T03:43:34.320Z,0
2017-03-10T03:44:34.937Z,0
2017-03-10T03:45:35.598Z,0
2017-03-10T03:46:36.263Z,0
2017-03-10T03:47:37.038Z,0
2017-03-10T03:48:37.715Z,0
2017-03-10T03:49:38.390Z,0
2017-03-10T03:50:39.173Z,0
2017-03-10T03:51:39.822Z,0
2017-03-10T03:52:40.481Z,0
2017-03-10T03:53:41.146Z,0
2017-03-10T03:54:41.820Z,0
2017-03-10T03:55:42.484Z,0
2017-03-10T03:56:43.161Z,0
2017-03-10T03:57:43.808Z,0
2017-03-10T03:58:44.473Z,0
2017-03-10T03:59:45.166Z,0
2017-03-10T04:00:45.856Z,0
2017-03-10T04:01:46.517Z,0
2017-03-10T04:02:47.169Z,0
2017-03-10T04:03:47.821Z,0
2017-03-10T04:04:48.484Z,0
2017-03-10T04:05:49.134Z,0
2017-03-10T04:06:49.796Z,0
2017-03-10T04:07:50.454Z,0
2017-03-10T04:08:51.193Z,0
2017-03-10T04:09:51.860Z,0
2017-03-10T04:10:52.522Z,0
2017-03-10T04:11:53.184Z,0
2017-03-10T04:12:53.815Z,0
2017-03-10T04:13:54.486Z,0
2017-03-10T04:14:55.135Z,0
2017-03-10T04:15:55.793Z,0
2017-03-10T04:16:56.450Z,0
2017-03-10T04:17:57.163Z,0
2017-03-10T04:18:57.835Z,0
2017-03-10T04:19:58.512Z,0
2017-03-10T04:20:59.170Z,0
2017-03-10T04:21:59.827Z,0
2017-03-10T04:23:00.508Z,0
2017-03-10T04:24:01.182Z,0
2017-03-10T04:25:01.846Z,0
2017-03-10T04:26:02.553Z,0
2017-03-10T04:27:03.248Z,0
2017-03-10T04:28:03.894Z,0
2017-03-10T04:29:04.557Z,0
2017-03-10T04:30:05.201Z,0
2017-03-10T04:31:05.865Z,0
2017-03-10T04:32:06.527Z,0
2017-03-10T04:33:07.186Z,0
2017-03-10T04:34:07.887Z,0
2017-03-10T04:35:08.531Z,0
2017-03-10T04:36:09.203Z,0
2017-03-10T04:37:09.850Z,0
2017-03-10T04:38:10.532Z,0
2017-03-10T04:39:11.179Z,0
2017-03-10T04:40:11.828Z,0
2017-03-10T04:41:12.495Z,0
2017-03-10T04:42:13.139Z,0
2017-03-10T04:43:13.797Z,0
2017-03-10T04:44:14.440Z,0
2017-03-10T04:45:15.116Z,0
2017-03-10T04:46:15.790Z,0
2017-03-10T04:47:16.447Z,0
2017-03-10T04:48:17.146Z,0
2017-03-10T04:49:17.787Z,0
2017-03-10T04:50:18.448Z,0
2017-03-10T04:51:19.111Z,0
2017-03-10T04:52:19.764Z,0
2017-03-10T04:53:20.482Z,0
2017-03-10T04:54:21.157Z,0
2017-03-10T04:55:21.794Z,0
2017-03-10T04:56:22.463Z,0
2017-03-10T04:57:23.116Z,0
2017-03-10T04:58:23.799Z,0
2017-03-10T04:59:24.475Z,0
2017-03-10T05:00:25.154Z,0
2017-03-10T05:01:25.813Z,0
2017-03-10T05:02:26.476Z,0
2017-03-10T05:03:27.125Z,0
2017-03-10T05:04:27.811Z,0
2017-03-10T05:05:28.468Z,0
2017-03-10T05:06:29.136Z,0
2017-03-10T05:07:29.807Z,0
2017-03-10T05:08:30.469Z,0
2017-03-10T05:09:31.138Z,0
2017-03-10T05:10:31.804Z,0
2017-03-10T05:11:32.462Z,0
2017-03-10T05:12:33.130Z,0
2017-03-10T05:13:33.791Z,0
2017-03-10T05:14:34.438Z,0
2017-03-10T05:15:35.092Z,0
2017-03-10T05:16:35.762Z,0
2017-03-10T05:17:36.420Z,0
2017-03-10T05:18:37.102Z,0
2017-03-10T05:19:37.756Z,0
2017-03-10T05:20:38.453Z,0
2017-03-10T05:21:39.118Z,0
2017-03-10T05:22:39.792Z,0
2017-03-10T05:23:40.452Z,0
2017-03-10T05:24:41.107Z,0
2017-03-10T05:25:41.769Z,0
2017-03-10T05:26:42.429Z,0
2017-03-10T05:27:43.196Z,0
2017-03-10T05:28:43.854Z,0
2017-03-10T05:29:44.516Z,0
2017-03-10T05:30:45.170Z,0
2017-03-10T05:31:45.835Z,0
2017-03-10T05:32:46.488Z,0
2017-03-10T05:33:47.142Z,0
2017-03-10T05:34:47.793Z,0
2017-03-10T05:35:48.443Z,0
2017-03-10T05:36:49.103Z,0
2017-03-10T05:37:49.760Z,0
2017-03-10T05:38:50.437Z,0
2017-03-10T05:39:51.090Z,0
2017-03-10T05:40:51.739Z,0
2017-03-10T05:41:52.439Z,0
2017-03-10T05:42:53.105Z,0
2017-03-10T05:43:53.766Z,0
2017-03-10T05:44:54.443Z,0
2017-03-10T05:45:55.106Z,0
2017-03-10T05:46:55.755Z,0
2017-03-10T05:47:56.405Z,0
2017-03-10T05:48:57.065Z,0
2017-03-10T05:49:57.734Z,0
2017-03-10T05:50:58.400Z,0
2017-03-10T05:51:59.059Z,5
2017-03-10T05:52:59.714Z,5
2017-03-10T05:54:00.356Z,5
2017-03-10T05:55:01.049Z,5
2017-03-10T05:56:01.711Z,5
2017-03-10T05:57:02.381Z,5
2017-03-10T05:58:03.044Z,5
2017-03-10T05:59:03.703Z,5
2017-03-10T06:00:04.362Z,5
2017-03-10T06:01:05.042Z,5
2017-03-10T06:02:05.687Z,10
2017-03-10T06:03:06.351Z,10
2017-03-10T06:04:07.010Z,10
2017-03-10T06:05:07.674Z,10
2017-03-10T06:06:08.343Z,10
2017-03-10T06:07:09.013Z,10
2017-03-10T06:08:09.675Z,10
2017-03-10T06:09:10.335Z,15
2017-03-10T06:10:11.007Z,15
2017-03-10T06:11:11.668Z,15
2017-03-10T06:12:12.375Z,10
2017-03-10T06:13:13.026Z,10
2017-03-10T06:14:13.688Z,15
2017-03-10T06:15:14.351Z,15
2017-03-10T06:16:15.012Z,25
2017-03-10T06:17:15.664Z,30
2017-03-10T06:18:16.310Z,20
2017-03-10T06:19:16.984Z,15
2017-03-10T06:20:17.658Z,15
2017-03-10T06:21:18.300Z,15
2017-03-10T06:22:18.950Z,15
2017-03-10T06:23:19.607Z,20
2017-03-10T06:24:20.255Z,25
2017-03-10T06:25:20.914Z,30
2017-03-10T06:26:21.571Z,40
2017-03-10T06:27:22.246Z,35
2017-03-10T06:28:22.916Z,35
2017-03-10T06:29:23.604Z,30
2017-03-10T06:30:24.275Z,40
2017-03-10T06:31:24.959Z,40
2017-03-10T06:32:25.653Z,40
2017-03-10T06:33:26.322Z,35
2017-03-10T06:34:26.975Z,35
2017-03-10T06:35:27.640Z,45
2017-03-10T06:36:28.340Z,50
2017-03-10T06:37:29.020Z,45
2017-03-10T06:38:29.687Z,50
2017-03-10T06:39:30.359Z,65
2017-03-10T06:40:31.049Z,65
2017-03-10T06:41:31.706Z,60
2017-03-10T06:42:32.362Z,65
2017-03-10T06:43:33.184Z,65
2017-03-10T06:44:34.062Z,85
2017-03-10T06:45:34.708Z,65
2017-03-10T06:46:35.352Z,65
2017-03-10T06:47:36.044Z,60
2017-03-10T06:48:36.696Z,50
2017-03-10T06:49:37.342Z,60
2017-03-10T06:50:38.040Z,75
2017-03-10T06:51:38.692Z,70
2017-03-10T06:52:39.351Z,65
2017-03-10T06:53:40.008Z,55
2017-03-10T06:54:40.663Z,70
2017-03-10T06:55:41.337Z,70
2017-03-10T06:56:41.997Z,50
2017-03-10T06:57:42.641Z,60
2017-03-10T06:58:43.294Z,60
2017-03-10T06:59:43.956Z,70
2017-03-10T07:00:44.641Z,70
2017-03-10T07:01:45.306Z,80
2017-03-10T07:02:45.972Z,65
2017-03-10T07:03:46.637Z,60
2017-03-10T07:04:47.281Z,60
2017-03-10T07:05:47.973Z,65
2017-03-10T07:06:48.639Z,45
2017-03-10T07:07:49.369Z,50
2017-03-10T07:08:50.078Z,50
2017-03-10T07:09:50.757Z,75
2017-03-10T07:10:51.411Z,55
2017-03-10T07:11:52.070Z,65
2017-03-10T07:12:52.763Z,85
2017-03-10T07:13:53.440Z,65
2017-03-10T07:14:54.108Z,50
2017-03-10T07:15:54.777Z,55
2017-03-10T07:16:55.768Z,80
2017-03-10T07:17:57.863Z,85
2017-03-10T07:18:59.489Z,75
2017-03-10T07:20:01.176Z,75
2017-03-10T07:21:03.289Z,110
2017-03-10T07:22:04.131Z,105
2017-03-10T07:23:04.786Z,105
2017-03-10T07:24:05.494Z,140
2017-03-10T07:25:06.204Z,165
2017-03-10T07:26:06.875Z,175
2017-03-10T07:27:07.552Z,155
2017-03-10T07:28:08.224Z,125
2017-03-10T07:29:08.891Z,80
2017-03-10T07:30:09.650Z,75
2017-03-10T07:31:10.359Z,105
2017-03-10T07:32:11.024Z,120
2017-03-10T07:33:11.700Z,150
2017-03-10T07:34:12.360Z,140
2017-03-10T07:35:13.027Z,125
2017-03-10T07:36:13.755Z,110
2017-03-10T07:37:16.068Z,130
2017-03-10T07:38:16.760Z,230
2017-03-10T07:39:17.468Z,180
2017-03-10T07:40:18.120Z,125
2017-03-10T07:41:18.781Z,100
2017-03-10T07:42:19.441Z,105
2017-03-10T07:43:20.083Z,125
2017-03-10T07:44:20.771Z,180
2017-03-10T07:45:21.446Z,210
2017-03-10T07:46:22.114Z,235
2017-03-10T07:47:22.826Z,250
2017-03-10T07:48:23.475Z,250
2017-03-10T07:49:24.135Z,255
2017-03-10T07:50:24.812Z,265
2017-03-10T07:51:25.462Z,245
2017-03-10T07:52:26.146Z,260
2017-03-10T07:53:26.787Z,335
2017-03-10T07:54:27.449Z,310
2017-03-10T07:55:28.093Z,320
2017-03-10T07:56:28.881Z,270
2017-03-10T07:57:29.662Z,215
2017-03-10T07:58:30.347Z,195
2017-03-10T07:59:31.043Z,200
2017-03-10T08:00:31.660Z,210
2017-03-10T08:01:32.314Z,180
2017-03-10T08:02:32.971Z,195
2017-03-10T08:03:33.763Z,230
2017-03-10T08:04:34.442Z,260
2017-03-10T08:05:35.095Z,305
2017-03-10T08:06:36.040Z,275
2017-03-10T08:07:36.707Z,285
2017-03-10T08:08:37.409Z,285
2017-03-10T08:09:39.241Z,350
2017-03-10T08:10:40.295Z,295
2017-03-10T08:11:41.088Z,315
2017-03-10T08:12:41.872Z,375
2017-03-10T08:13:42.685Z,410
2017-03-10T08:14:43.427Z,490
2017-03-10T08:15:44.804Z,395
2017-03-10T08:16:45.582Z,380
2017-03-10T08:17:46.350Z,365
2017-03-10T08:18:47.132Z,330
2017-03-10T08:19:49.173Z,310
2017-03-10T08:20:49.954Z,330
2017-03-10T08:21:50.684Z,360
2017-03-10T08:22:52.309Z,340
2017-03-10T08:23:53.354Z,390
2017-03-10T08:24:54.382Z,400
2017-03-10T08:25:55.284Z,480
2017-03-10T08:26:55.955Z,490
2017-03-10T08:27:56.620Z,570
2017-03-10T08:28:57.816Z,485
2017-03-10T08:29:59.356Z,495
2017-03-10T08:31:00.632Z,530
2017-03-10T08:32:01.700Z,995
2017-03-10T08:33:02.516Z,495
2017-03-10T08:34:03.164Z,410
2017-03-10T08:35:04.094Z,405
2017-03-10T08:36:04.910Z,415
2017-03-10T08:37:05.668Z,425
2017-03-10T08:38:06.331Z,480
2017-03-10T08:39:06.985Z,470
2017-03-10T08:40:07.685Z,775
2017-03-10T08:41:08.384Z,395
2017-03-10T08:42:09.130Z,320
2017-03-10T08:43:09.817Z,295
2017-03-10T08:44:10.464Z,335
2017-03-10T08:45:11.131Z,375
2017-03-10T08:46:11.782Z,455
2017-03-10T08:47:12.448Z,415
2017-03-10T08:48:13.115Z,540
2017-03-10T08:49:13.762Z,575
2017-03-10T08:50:14.410Z,490
2017-03-10T08:51:15.080Z,370
2017-03-10T08:52:15.755Z,480
2017-03-10T08:53:16.423Z,480
2017-03-10T08:54:17.065Z,450
2017-03-10T08:55:17.735Z,350
2017-03-10T08:56:18.446Z,340
2017-03-10T08:57:19.113Z,300
2017-03-10T08:58:19.755Z,205
2017-03-10T08:59:20.425Z,190
2017-03-10T09:00:21.081Z,200
2017-03-10T09:01:21.731Z,250
2017-03-10T09:02:22.402Z,250
2017-03-10T09:03:23.075Z,185
2017-03-10T09:04:23.759Z,175
2017-03-10T09:05:24.421Z,205
2017-03-10T09:06:25.079Z,220
2017-03-10T09:07:25.761Z,245
2017-03-10T09:08:26.412Z,270
2017-03-10T09:09:27.105Z,230
2017-03-10T09:10:27.797Z,190
2017-03-10T09:11:28.495Z,240
2017-03-10T09:12:29.158Z,255
2017-03-10T09:13:29.835Z,230
2017-03-10T09:14:30.550Z,255
2017-03-10T09:15:31.221Z,310
2017-03-10T09:16:31.885Z,295
2017-03-10T09:17:32.558Z,250
2017-03-10T09:18:33.239Z,295
2017-03-10T09:19:33.912Z,295
2017-03-10T09:20:34.586Z,260
2017-03-10T09:21:35.228Z,285
2017-03-10T09:22:35.895Z,365
2017-03-10T09:23:36.585Z,335
2017-03-10T09:24:37.211Z,335
2017-03-10T09:25:37.889Z,300
2017-03-10T09:26:38.566Z,270
2017-03-10T09:27:39.242Z,285
2017-03-10T09:28:39.904Z,290
2017-03-10T09:29:40.594Z,345
2017-03-10T09:30:41.260Z,390
2017-03-10T09:31:41.925Z,435
2017-03-10T09:32:42.596Z,410
2017-03-10T09:33:43.258Z,350
2017-03-10T09:34:43.914Z,320
2017-03-10T09:35:44.674Z,355
2017-03-10T09:36:45.406Z,370
2017-03-10T09:37:46.152Z,410
2017-03-10T09:38:46.863Z,495
2017-03-10T09:39:47.539Z,560
2017-03-10T09:40:48.219Z,510
2017-03-10T09:41:48.885Z,600
2017-03-10T09:42:49.640Z,595
2017-03-10T09:43:50.313Z,570
2017-03-10T09:44:50.976Z,510
2017-03-10T09:45:51.681Z,530
2017-03-10T09:46:52.358Z,550
2017-03-10T09:47:53.037Z,510
2017-03-10T09:48:53.697Z,450
2017-03-10T09:49:54.364Z,405
2017-03-10T09:50:55.038Z,420
2017-03-10T09:51:55.740Z,410
2017-03-10T09:52:56.402Z,395
2017-03-10T09:53:57.071Z,435
2017-03-10T09:54:57.733Z,480
2017-03-10T09:55:58.413Z,440
2017-03-10T09:56:59.081Z,415
2017-03-10T09:57:59.760Z,395
2017-03-10T09:59:00.439Z,475
2017-03-10T10:00:01.112Z,545
2017-03-10T10:01:01.803Z,530
2017-03-10T10:02:02.476Z,535
2017-03-10T10:03:03.155Z,505
2017-03-10T10:04:03.821Z,435
2017-03-10T10:05:04.495Z,440
2017-03-10T10:06:05.206Z,400
2017-03-10T10:07:05.882Z,455
2017-03-10T10:08:06.552Z,485
2017-03-10T10:09:07.259Z,470
2017-03-10T10:10:07.923Z,395
2017-03-10T10:11:08.599Z,520
2017-03-10T10:12:09.268Z,490
2017-03-10T10:13:09.929Z,405
2017-03-10T10:14:10.603Z,350
2017-03-10T10:15:11.269Z,370
2017-03-10T10:16:11.987Z,455
2017-03-10T10:17:12.641Z,485
2017-03-10T10:18:13.307Z,440
2017-03-10T10:19:13.958Z,470
2017-03-10T10:20:14.694Z,545
2017-03-10T10:21:15.370Z,460
2017-03-10T10:22:16.062Z,440
2017-03-10T10:23:16.737Z,375
2017-03-10T10:24:17.396Z,320
2017-03-10T10:25:18.073Z,410
2017-03-10T10:26:18.750Z,515
2017-03-10T10:27:19.413Z,475
2017-03-10T10:28:20.076Z,495
2017-03-10T10:29:20.748Z,520
2017-03-10T10:30:21.423Z,495
2017-03-10T10:31:22.120Z,485
2017-03-10T10:32:22.817Z,490
2017-03-10T10:33:23.480Z,500
2017-03-10T10:34:24.154Z,485
2017-03-10T10:35:24.809Z,350
2017-03-10T10:36:25.476Z,315
2017-03-10T10:37:26.165Z,310
2017-03-10T10:38:26.831Z,350
2017-03-10T10:39:27.502Z,395
2017-03-10T10:40:28.179Z,420
2017-03-10T10:41:28.839Z,395
2017-03-10T10:42:29.510Z,455
2017-03-10T10:43:30.175Z,450
2017-03-10T10:44:30.851Z,365
2017-03-10T10:45:31.505Z,310
2017-03-10T10:46:32.216Z,325
2017-03-10T10:47:32.871Z,390
2017-03-10T10:48:33.546Z,445
2017-03-10T10:49:34.208Z,450
2017-03-10T10:50:34.866Z,460
2017-03-10T10:51:35.548Z,455
2017-03-10T10:52:36.207Z,395
2017-03-10T10:53:36.879Z,405
2017-03-10T10:54:37.526Z,460
2017-03-10T10:55:38.195Z,490
2017-03-10T10:56:38.856Z,425
2017-03-10T10:57:39.538Z,375
2017-03-10T10:58:40.262Z,390
2017-03-10T10:59:40.928Z,405
2017-03-10T11:00:41.596Z,400
2017-03-10T11:01:42.268Z,420
2017-03-10T11:02:42.926Z,410
2017-03-10T11:03:43.607Z,465
2017-03-10T11:04:44.279Z,465
2017-03-10T11:05:44.947Z,370
2017-03-10T11:06:45.625Z,350
2017-03-10T11:07:46.319Z,345
2017-03-10T11:08:46.973Z,290
2017-03-10T11:09:47.678Z,280
2017-03-10T11:10:48.355Z,335
2017-03-10T11:11:49.029Z,375
2017-03-10T11:12:49.688Z,410
2017-03-10T11:13:50.384Z,425
2017-03-10T11:14:51.053Z,485
2017-03-10T11:15:51.722Z,515
2017-03-10T11:16:52.390Z,460
2017-03-10T11:17:53.043Z,385
2017-03-10T11:18:53.743Z,295
2017-03-10T11:19:54.402Z,260
2017-03-10T11:20:55.067Z,260
2017-03-10T11:21:55.729Z,295
2017-03-10T11:22:56.399Z,355
2017-03-10T11:23:57.062Z,335
2017-03-10T11:24:57.730Z,305
2017-03-10T11:25:58.401Z,330
2017-03-10T11:26:59.120Z,320
2017-03-10T11:27:59.794Z,335
2017-03-10T11:29:00.458Z,335
2017-03-10T11:30:01.119Z,300
2017-03-10T11:31:01.793Z,250
2017-03-10T11:32:02.450Z,230
2017-03-10T11:33:03.109Z,210
2017-03-10T11:34:03.767Z,235
2017-03-10T11:35:04.429Z,205
2017-03-10T11:36:05.090Z,215
2017-03-10T11:37:05.767Z,240
2017-03-10T11:38:06.416Z,285
2017-03-10T11:39:07.071Z,345
2017-03-10T11:40:07.766Z,330
2017-03-10T11:41:08.426Z,340
2017-03-10T11:42:09.103Z,380
2017-03-10T11:43:09.758Z,410
2017-03-10T11:44:10.419Z,340
2017-03-10T11:45:11.107Z,275
2017-03-10T11:46:11.782Z,260
2017-03-10T11:47:12.447Z,235
2017-03-10T11:48:13.126Z,270
2017-03-10T11:49:13.857Z,305
2017-03-10T11:50:14.509Z,300
2017-03-10T11:51:15.186Z,270
2017-03-10T11:52:15.863Z,255
2017-03-10T11:53:16.539Z,285
2017-03-10T11:54:17.220Z,300
2017-03-10T11:55:17.880Z,265
2017-03-10T11:56:18.635Z,250
2017-03-10T11:57:19.312Z,230
2017-03-10T11:58:19.989Z,260
2017-03-10T11:59:20.652Z,285
2017-03-10T12:00:21.332Z,310
2017-03-10T12:01:22.009Z,370
2017-03-10T12:02:22.681Z,375
2017-03-10T12:03:23.353Z,415
2017-03-10T12:04:24.029Z,375
2017-03-10T12:05:24.696Z,315
2017-03-10T12:06:25.366Z,295
2017-03-10T12:07:26.041Z,280
2017-03-10T12:08:26.718Z,300
2017-03-10T12:09:27.389Z,325
2017-03-10T12:10:28.070Z,345
2017-03-10T12:11:28.735Z,330
2017-03-10T12:12:29.401Z,300
2017-03-10T12:13:30.057Z,290
2017-03-10T12:14:30.718Z,285
2017-03-10T12:15:31.379Z,305
2017-03-10T12:16:32.055Z,320
2017-03-10T12:17:32.714Z,370
2017-03-10T12:18:33.382Z,340
2017-03-10T12:19:34.056Z,335
2017-03-10T12:20:34.723Z,375
2017-03-10T12:21:35.385Z,375
2017-03-10T12:22:36.064Z,315
2017-03-10T12:23:36.743Z,315
2017-03-10T12:24:37.414Z,365
2017-03-10T12:25:38.084Z,345
2017-03-10T12:26:38.764Z,300
2017-03-10T12:27:39.442Z,295
2017-03-10T12:28:40.102Z,360
2017-03-10T12:29:40.772Z,375
2017-03-10T12:30:41.452Z,355
2017-03-10T12:31:42.107Z,365
2017-03-10T12:32:42.777Z,385
2017-03-10T12:33:43.437Z,390
2017-03-10T12:34:44.137Z,355
2017-03-10T12:35:44.803Z,315
2017-03-10T12:36:45.464Z,260
2017-03-10T12:37:46.166Z,235
2017-03-10T12:38:46.866Z,250
2017-03-10T12:39:47.529Z,265
2017-03-10T12:40:48.196Z,270
2017-03-10T12:41:48.869Z,290
2017-03-10T12:42:49.538Z,280
2017-03-10T12:43:50.227Z,310
2017-03-10T12:44:50.908Z,345
2017-03-10T12:45:51.552Z,365
2017-03-10T12:46:52.211Z,335
2017-03-10T12:47:52.887Z,305
2017-03-10T12:48:53.552Z,290
2017-03-10T12:49:54.214Z,310
2017-03-10T12:50:54.896Z,330
2017-03-10T12:51:55.569Z,325
2017-03-10T12:52:56.271Z,315
2017-03-10T12:53:56.945Z,335
2017-03-10T12:54:57.618Z,280
2017-03-10T12:55:58.288Z,305
2017-03-10T12:56:58.977Z,355
2017-03-10T12:57:59.655Z,395
2017-03-10T12:59:00.354Z,430
2017-03-10T13:00:01.010Z,400
2017-03-10T13:01:01.660Z,355
2017-03-10T13:02:02.324Z,325
2017-03-10T13:03:03.037Z,270
2017-03-10T13:04:03.707Z,260
2017-03-10T13:05:04.375Z,235
2017-03-10T13:06:05.059Z,225
2017-03-10T13:07:05.715Z,250
2017-03-10T13:08:06.371Z,235
2017-03-10T13:09:07.045Z,250
2017-03-10T13:10:07.710Z,240
2017-03-10T13:11:08.373Z,220
2017-03-10T13:12:09.041Z,215
2017-03-10T13:13:09.721Z,215
2017-03-10T13:14:10.399Z,220
2017-03-10T13:15:11.083Z,225
2017-03-10T13:16:11.747Z,230
2017-03-10T13:17:12.407Z,245
2017-03-10T13:18:13.067Z,265
2017-03-10T13:19:13.717Z,305
2017-03-10T13:20:14.377Z,380
2017-03-10T13:21:15.041Z,430
2017-03-10T13:22:15.695Z,410
2017-03-10T13:23:16.363Z,370
2017-03-10T13:24:17.053Z,365
2017-03-10T13:25:17.725Z,355
2017-03-10T13:26:18.385Z,330
2017-03-10T13:27:19.035Z,290
2017-03-10T13:28:19.749Z,260
2017-03-10T13:29:20.416Z,225
2017-03-10T13:30:21.061Z,260
2017-03-10T13:31:21.711Z,290
2017-03-10T13:32:22.374Z,270
2017-03-10T13:33:23.043Z,250
2017-03-10T13:34:23.718Z,245
2017-03-10T13:35:24.390Z,260
2017-03-10T13:36:25.131Z,280
2017-03-10T13:37:25.789Z,285
2017-03-10T13:38:26.431Z,285
2017-03-10T13:39:27.103Z,285
2017-03-10T13:40:27.763Z,290
2017-03-10T13:41:28.422Z,275
2017-03-10T13:42:29.076Z,275
2017-03-10T13:43:29.752Z,275
2017-03-10T13:44:30.456Z,280
2017-03-10T13:45:31.102Z,280
2017-03-10T13:46:31.784Z,280
2017-03-10T13:47:32.464Z,280
2017-03-10T13:48:33.145Z,280
2017-03-10T13:49:33.810Z,260
2017-03-10T13:50:34.469Z,285
2017-03-10T13:51:35.134Z,300
2017-03-10T13:52:35.787Z,290
2017-03-10T13:53:36.500Z,265
2017-03-10T13:54:37.180Z,235
2017-03-10T13:55:37.828Z,235
2017-03-10T13:56:38.503Z,225
2017-03-10T13:57:39.151Z,220
2017-03-10T13:58:39.808Z,210
2017-03-10T13:59:40.485Z,195
2017-03-10T14:00:41.138Z,200
2017-03-10T14:01:41.821Z,185
2017-03-10T14:02:42.479Z,200
2017-03-10T14:03:43.173Z,205
2017-03-10T14:04:43.849Z,215
2017-03-10T14:05:44.505Z,210
2017-03-10T14:06:45.163Z,200
2017-03-10T14:07:45.810Z,190
2017-03-10T14:08:46.472Z,180
2017-03-10T14:09:47.134Z,180
2017-03-10T14:10:47.802Z,170
2017-03-10T14:11:49.477Z,175
2017-03-10T14:12:51.128Z,175
2017-03-10T14:13:51.818Z,175
2017-03-10T14:14:52.487Z,180
2017-03-10T14:15:53.147Z,180
2017-03-10T14:16:53.819Z,180
2017-03-10T14:17:54.491Z,180
2017-03-10T14:18:55.147Z,180
2017-03-10T14:19:55.851Z,175
2017-03-10T14:20:56.523Z,175
2017-03-10T14:21:57.215Z,170
2017-03-10T14:22:57.951Z,170